sensor_id;sensor_type;location;lat;lon;timestamp;P1;durP1;ratioP1;P2;durP2;ratioP2
9304;SDS011;4690;52.422;13.486;2023-04-06T00:05:14;7.80;;;7.10;;
9304;SDS011;4690;52.422;13.486;2023-04-06T00:07:40;8.63;;;7.73;;
9304;SDS011;4690;52.422;13.486;2023-04-06T00:10:06;8.07;;;7.27;;
9304;SDS011;4690;52.422;13.486;2023-04-06T00:12:33;9.83;;;7.47;;
9304;SDS011;4690;52.422;13.486;2023-04-06T00:14:58;7.93;;;7.13;;
9304;SDS011;4690;52.422;13.486;2023-04-06T00:17:26;8.27;;;7.47;;
9304;SDS011;4690;52.422;13.486;2023-04-06T00:19:53;8.40;;;7.60;;
9304;SDS011;4690;52.422;13.486;2023-04-06T00:22:18;8.47;;;7.43;;
9304;SDS011;4690;52.422;13.486;2023-04-06T00:24:44;9.80;;;7.80;;
9304;SDS011;4690;52.422;13.486;2023-04-06T00:27:10;8.43;;;7.63;;
9304;SDS011;4690;52.422;13.486;2023-04-06T00:29:36;8.77;;;7.83;;
9304;SDS011;4690;52.422;13.486;2023-04-06T00:32:02;8.93;;;8.00;;
9304;SDS011;4690;52.422;13.486;2023-04-06T00:34:27;9.47;;;8.47;;
9304;SDS011;4690;52.422;13.486;2023-04-06T00:36:53;9.40;;;8.40;;
9304;SDS011;4690;52.422;13.486;2023-04-06T00:39:19;8.33;;;7.53;;
9304;SDS011;4690;52.422;13.486;2023-04-06T00:41:46;8.47;;;7.67;;
9304;SDS011;4690;52.422;13.486;2023-04-06T00:44:17;9.23;;;8.33;;
9304;SDS011;4690;52.422;13.486;2023-04-06T00:46:43;9.00;;;8.10;;
9304;SDS011;4690;52.422;13.486;2023-04-06T00:49:09;8.87;;;8.00;;
9304;SDS011;4690;52.422;13.486;2023-04-06T00:51:35;10.20;;;8.83;;
9304;SDS011;4690;52.422;13.486;2023-04-06T00:54:01;9.03;;;8.13;;
9304;SDS011;4690;52.422;13.486;2023-04-06T00:56:27;10.17;;;9.10;;
9304;SDS011;4690;52.422;13.486;2023-04-06T00:58:53;10.40;;;9.40;;
9304;SDS011;4690;52.422;13.486;2023-04-06T01:01:19;11.23;;;10.13;;
9304;SDS011;4690;52.422;13.486;2023-04-06T01:03:45;11.67;;;10.50;;
9304;SDS011;4690;52.422;13.486;2023-04-06T01:06:14;10.73;;;9.73;;
9304;SDS011;4690;52.422;13.486;2023-04-06T01:08:40;11.50;;;10.40;;
9304;SDS011;4690;52.422;13.486;2023-04-06T01:11:05;11.97;;;10.80;;
9304;SDS011;4690;52.422;13.486;2023-04-06T01:13:31;11.73;;;10.70;;
9304;SDS011;4690;52.422;13.486;2023-04-06T01:15:57;10.87;;;9.83;;
9304;SDS011;4690;52.422;13.486;2023-04-06T01:18:27;10.97;;;9.93;;
9304;SDS011;4690;52.422;13.486;2023-04-06T01:20:54;11.43;;;10.20;;
9304;SDS011;4690;52.422;13.486;2023-04-06T01:23:20;11.47;;;10.47;;
9304;SDS011;4690;52.422;13.486;2023-04-06T01:25:46;12.20;;;11.10;;
9304;SDS011;4690;52.422;13.486;2023-04-06T01:28:12;11.07;;;10.03;;
9304;SDS011;4690;52.422;13.486;2023-04-06T01:30:38;11.97;;;10.77;;
9304;SDS011;4690;52.422;13.486;2023-04-06T01:33:04;11.90;;;10.70;;
9304;SDS011;4690;52.422;13.486;2023-04-06T01:35:30;11.40;;;10.27;;
9304;SDS011;4690;52.422;13.486;2023-04-06T01:37:55;11.03;;;10.03;;
9304;SDS011;4690;52.422;13.486;2023-04-06T01:40:21;12.17;;;11.00;;
9304;SDS011;4690;52.422;13.486;2023-04-06T01:42:47;11.63;;;10.53;;
9304;SDS011;4690;52.422;13.486;2023-04-06T01:45:13;12.10;;;11.00;;
9304;SDS011;4690;52.422;13.486;2023-04-06T01:47:39;12.00;;;10.83;;
9304;SDS011;4690;52.422;13.486;2023-04-06T01:50:05;11.57;;;10.47;;
9304;SDS011;4690;52.422;13.486;2023-04-06T01:52:35;13.27;;;11.87;;
9304;SDS011;4690;52.422;13.486;2023-04-06T01:55:02;11.73;;;10.60;;
9304;SDS011;4690;52.422;13.486;2023-04-06T01:57:28;11.27;;;10.20;;
9304;SDS011;4690;52.422;13.486;2023-04-06T01:59:54;12.33;;;10.17;;
9304;SDS011;4690;52.422;13.486;2023-04-06T02:02:20;11.43;;;10.33;;
9304;SDS011;4690;52.422;13.486;2023-04-06T02:04:46;11.50;;;10.40;;
9304;SDS011;4690;52.422;13.486;2023-04-06T02:07:11;10.90;;;9.90;;
9304;SDS011;4690;52.422;13.486;2023-04-06T02:09:37;11.37;;;10.23;;
9304;SDS011;4690;52.422;13.486;2023-04-06T02:12:03;11.13;;;10.10;;
9304;SDS011;4690;52.422;13.486;2023-04-06T02:14:29;11.37;;;10.20;;
9304;SDS011;4690;52.422;13.486;2023-04-06T02:16:55;11.90;;;10.73;;
9304;SDS011;4690;52.422;13.486;2023-04-06T02:19:21;10.93;;;10.00;;
9304;SDS011;4690;52.422;13.486;2023-04-06T02:21:47;11.73;;;10.73;;
9304;SDS011;4690;52.422;13.486;2023-04-06T02:24:13;11.93;;;10.57;;
9304;SDS011;4690;52.422;13.486;2023-04-06T02:26:38;12.13;;;11.03;;
9304;SDS011;4690;52.422;13.486;2023-04-06T02:29:04;11.70;;;10.60;;
9304;SDS011;4690;52.422;13.486;2023-04-06T02:31:30;12.90;;;11.70;;
9304;SDS011;4690;52.422;13.486;2023-04-06T02:33:56;11.43;;;10.23;;
9304;SDS011;4690;52.422;13.486;2023-04-06T02:36:22;11.33;;;10.33;;
9304;SDS011;4690;52.422;13.486;2023-04-06T02:38:48;11.53;;;10.53;;
9304;SDS011;4690;52.422;13.486;2023-04-06T02:41:13;12.77;;;11.53;;
9304;SDS011;4690;52.422;13.486;2023-04-06T02:43:40;13.20;;;11.80;;
9304;SDS011;4690;52.422;13.486;2023-04-06T02:46:05;13.50;;;12.20;;
9304;SDS011;4690;52.422;13.486;2023-04-06T02:48:31;12.67;;;11.47;;
9304;SDS011;4690;52.422;13.486;2023-04-06T02:50:57;12.80;;;11.60;;
9304;SDS011;4690;52.422;13.486;2023-04-06T02:53:23;12.87;;;11.77;;
9304;SDS011;4690;52.422;13.486;2023-04-06T02:55:48;12.83;;;11.63;;
9304;SDS011;4690;52.422;13.486;2023-04-06T02:58:14;13.17;;;11.87;;
9304;SDS011;4690;52.422;13.486;2023-04-06T03:00:40;13.37;;;12.13;;
9304;SDS011;4690;52.422;13.486;2023-04-06T03:03:06;11.90;;;10.80;;
9304;SDS011;4690;52.422;13.486;2023-04-06T03:05:33;12.30;;;11.20;;
9304;SDS011;4690;52.422;13.486;2023-04-06T03:07:58;12.40;;;11.20;;
9304;SDS011;4690;52.422;13.486;2023-04-06T03:10:24;12.57;;;11.37;;
9304;SDS011;4690;52.422;13.486;2023-04-06T03:12:50;12.10;;;11.00;;
9304;SDS011;4690;52.422;13.486;2023-04-06T03:15:16;11.90;;;10.90;;
9304;SDS011;4690;52.422;13.486;2023-04-06T03:17:42;13.03;;;11.83;;
9304;SDS011;4690;52.422;13.486;2023-04-06T03:20:07;11.97;;;10.87;;
9304;SDS011;4690;52.422;13.486;2023-04-06T03:22:34;12.53;;;11.33;;
9304;SDS011;4690;52.422;13.486;2023-04-06T03:24:59;13.27;;;11.97;;
9304;SDS011;4690;52.422;13.486;2023-04-06T03:27:25;13.13;;;11.47;;
9304;SDS011;4690;52.422;13.486;2023-04-06T03:29:51;12.80;;;11.67;;
9304;SDS011;4690;52.422;13.486;2023-04-06T03:32:17;13.47;;;12.20;;
9304;SDS011;4690;52.422;13.486;2023-04-06T03:34:42;12.40;;;11.30;;
9304;SDS011;4690;52.422;13.486;2023-04-06T03:37:08;12.37;;;11.27;;
9304;SDS011;4690;52.422;13.486;2023-04-06T03:39:34;13.07;;;11.90;;
9304;SDS011;4690;52.422;13.486;2023-04-06T03:42:00;12.53;;;11.37;;
9304;SDS011;4690;52.422;13.486;2023-04-06T03:44:26;12.70;;;11.50;;
9304;SDS011;4690;52.422;13.486;2023-04-06T03:46:51;13.30;;;12.10;;
9304;SDS011;4690;52.422;13.486;2023-04-06T03:49:17;13.47;;;12.27;;
9304;SDS011;4690;52.422;13.486;2023-04-06T03:51:43;13.03;;;11.83;;
9304;SDS011;4690;52.422;13.486;2023-04-06T03:54:09;12.40;;;11.30;;
9304;SDS011;4690;52.422;13.486;2023-04-06T03:56:34;12.93;;;11.63;;
9304;SDS011;4690;52.422;13.486;2023-04-06T03:59:00;13.27;;;12.03;;
9304;SDS011;4690;52.422;13.486;2023-04-06T04:01:26;12.40;;;11.20;;
9304;SDS011;4690;52.422;13.486;2023-04-06T04:03:53;12.97;;;11.73;;
9304;SDS011;4690;52.422;13.486;2023-04-06T04:06:18;13.33;;;12.07;;
9304;SDS011;4690;52.422;13.486;2023-04-06T04:08:44;13.03;;;11.83;;
9304;SDS011;4690;52.422;13.486;2023-04-06T04:11:10;13.30;;;12.02;;
9304;SDS011;4690;52.422;13.486;2023-04-06T04:13:36;12.60;;;11.40;;
9304;SDS011;4690;52.422;13.486;2023-04-06T04:16:01;12.80;;;11.60;;
9304;SDS011;4690;52.422;13.486;2023-04-06T04:18:27;13.00;;;11.70;;
9304;SDS011;4690;52.422;13.486;2023-04-06T04:20:53;12.97;;;11.47;;
9304;SDS011;4690;52.422;13.486;2023-04-06T04:23:19;11.93;;;10.83;;
9304;SDS011;4690;52.422;13.486;2023-04-06T04:25:45;12.73;;;11.50;;
9304;SDS011;4690;52.422;13.486;2023-04-06T04:28:11;13.30;;;12.03;;
9304;SDS011;4690;52.422;13.486;2023-04-06T04:30:36;14.00;;;11.20;;
9304;SDS011;4690;52.422;13.486;2023-04-06T04:33:02;12.80;;;11.37;;
9304;SDS011;4690;52.422;13.486;2023-04-06T04:35:28;12.53;;;11.40;;
9304;SDS011;4690;52.422;13.486;2023-04-06T04:37:54;13.23;;;11.90;;
9304;SDS011;4690;52.422;13.486;2023-04-06T04:40:20;12.87;;;11.67;;
9304;SDS011;4690;52.422;13.486;2023-04-06T04:42:46;13.50;;;12.20;;
9304;SDS011;4690;52.422;13.486;2023-04-06T04:45:12;13.30;;;11.90;;
9304;SDS011;4690;52.422;13.486;2023-04-06T04:47:38;12.20;;;11.00;;
9304;SDS011;4690;52.422;13.486;2023-04-06T04:50:03;12.63;;;11.27;;
9304;SDS011;4690;52.422;13.486;2023-04-06T04:52:30;11.97;;;10.70;;
9304;SDS011;4690;52.422;13.486;2023-04-06T04:54:56;13.03;;;11.07;;
9304;SDS011;4690;52.422;13.486;2023-04-06T04:57:22;11.53;;;10.17;;
9304;SDS011;4690;52.422;13.486;2023-04-06T04:59:47;11.23;;;10.13;;
9304;SDS011;4690;52.422;13.486;2023-04-06T05:02:15;10.63;;;9.57;;
9304;SDS011;4690;52.422;13.486;2023-04-06T05:04:40;13.03;;;10.40;;
9304;SDS011;4690;52.422;13.486;2023-04-06T05:07:07;10.27;;;9.30;;
9304;SDS011;4690;52.422;13.486;2023-04-06T05:09:34;11.07;;;9.57;;
9304;SDS011;4690;52.422;13.486;2023-04-06T05:12:00;11.33;;;9.20;;
9304;SDS011;4690;52.422;13.486;2023-04-06T05:14:27;10.63;;;9.50;;
9304;SDS011;4690;52.422;13.486;2023-04-06T05:16:53;9.70;;;8.70;;
9304;SDS011;4690;52.422;13.486;2023-04-06T05:19:19;12.43;;;8.70;;
9304;SDS011;4690;52.422;13.486;2023-04-06T05:21:45;10.93;;;8.40;;
9304;SDS011;4690;52.422;13.486;2023-04-06T05:24:11;9.60;;;7.90;;
9304;SDS011;4690;52.422;13.486;2023-04-06T05:26:37;10.17;;;8.03;;
9304;SDS011;4690;52.422;13.486;2023-04-06T05:29:03;9.07;;;7.73;;
9304;SDS011;4690;52.422;13.486;2023-04-06T05:31:29;8.00;;;7.20;;
9304;SDS011;4690;52.422;13.486;2023-04-06T05:33:56;8.63;;;7.00;;
9304;SDS011;4690;52.422;13.486;2023-04-06T05:36:22;10.00;;;7.47;;
9304;SDS011;4690;52.422;13.486;2023-04-06T05:38:47;7.47;;;6.77;;
9304;SDS011;4690;52.422;13.486;2023-04-06T05:41:15;7.80;;;7.00;;
9304;SDS011;4690;52.422;13.486;2023-04-06T05:43:41;8.00;;;7.20;;
9304;SDS011;4690;52.422;13.486;2023-04-06T05:46:07;7.43;;;6.63;;
9304;SDS011;4690;52.422;13.486;2023-04-06T05:48:32;8.53;;;7.00;;
9304;SDS011;4690;52.422;13.486;2023-04-06T05:50:58;7.87;;;6.77;;
9304;SDS011;4690;52.422;13.486;2023-04-06T05:53:25;9.90;;;6.83;;
9304;SDS011;4690;52.422;13.486;2023-04-06T05:55:51;6.70;;;6.03;;
9304;SDS011;4690;52.422;13.486;2023-04-06T05:58:17;9.47;;;7.50;;
9304;SDS011;4690;52.422;13.486;2023-04-06T06:00:43;7.83;;;6.40;;
9304;SDS011;4690;52.422;13.486;2023-04-06T06:03:10;10.93;;;6.73;;
9304;SDS011;4690;52.422;13.486;2023-04-06T06:05:37;8.47;;;6.63;;
9304;SDS011;4690;52.422;13.486;2023-04-06T06:08:03;7.60;;;6.17;;
9304;SDS011;4690;52.422;13.486;2023-04-06T06:10:29;11.83;;;6.17;;
9304;SDS011;4690;52.422;13.486;2023-04-06T06:12:55;9.00;;;6.87;;
9304;SDS011;4690;52.422;13.486;2023-04-06T06:15:21;12.87;;;6.43;;
9304;SDS011;4690;52.422;13.486;2023-04-06T06:17:47;12.70;;;5.63;;
9304;SDS011;4690;52.422;13.486;2023-04-06T06:20:12;10.73;;;6.10;;
9304;SDS011;4690;52.422;13.486;2023-04-06T06:22:38;9.00;;;5.80;;
9304;SDS011;4690;52.422;13.486;2023-04-06T06:25:05;13.87;;;5.83;;
9304;SDS011;4690;52.422;13.486;2023-04-06T06:27:31;9.47;;;4.90;;
9304;SDS011;4690;52.422;13.486;2023-04-06T06:29:56;8.37;;;5.20;;
9304;SDS011;4690;52.422;13.486;2023-04-06T06:32:22;8.73;;;5.10;;
9304;SDS011;4690;52.422;13.486;2023-04-06T06:34:48;7.50;;;5.17;;
9304;SDS011;4690;52.422;13.486;2023-04-06T06:37:14;9.80;;;4.87;;
9304;SDS011;4690;52.422;13.486;2023-04-06T06:39:39;8.97;;;4.97;;
9304;SDS011;4690;52.422;13.486;2023-04-06T06:42:05;7.70;;;5.47;;
9304;SDS011;4690;52.422;13.486;2023-04-06T06:44:31;6.40;;;5.20;;
9304;SDS011;4690;52.422;13.486;2023-04-06T06:46:57;5.93;;;5.07;;
9304;SDS011;4690;52.422;13.486;2023-04-06T06:49:23;7.43;;;5.45;;
9304;SDS011;4690;52.422;13.486;2023-04-06T06:51:49;8.43;;;4.85;;
9304;SDS011;4690;52.422;13.486;2023-04-06T06:54:15;5.40;;;4.65;;
9304;SDS011;4690;52.422;13.486;2023-04-06T06:56:40;5.78;;;4.80;;
9304;SDS011;4690;52.422;13.486;2023-04-06T06:59:06;4.78;;;4.20;;
9304;SDS011;4690;52.422;13.486;2023-04-06T07:01:32;5.68;;;4.72;;
9304;SDS011;4690;52.422;13.486;2023-04-06T07:03:59;5.88;;;4.80;;
9304;SDS011;4690;52.422;13.486;2023-04-06T07:06:25;7.22;;;5.45;;
9304;SDS011;4690;52.422;13.486;2023-04-06T07:08:51;6.05;;;5.22;;
9304;SDS011;4690;52.422;13.486;2023-04-06T07:11:17;6.50;;;5.47;;
9304;SDS011;4690;52.422;13.486;2023-04-06T07:13:43;6.60;;;5.43;;
9304;SDS011;4690;52.422;13.486;2023-04-06T07:16:08;8.50;;;5.57;;
9304;SDS011;4690;52.422;13.486;2023-04-06T07:18:34;9.68;;;6.13;;
9304;SDS011;4690;52.422;13.486;2023-04-06T07:21:00;8.18;;;5.80;;
9304;SDS011;4690;52.422;13.486;2023-04-06T07:23:26;10.52;;;6.50;;
9304;SDS011;4690;52.422;13.486;2023-04-06T07:25:52;6.57;;;5.93;;
9304;SDS011;4690;52.422;13.486;2023-04-06T07:28:19;12.40;;;6.07;;
9304;SDS011;4690;52.422;13.486;2023-04-06T07:30:45;11.23;;;5.78;;
9304;SDS011;4690;52.422;13.486;2023-04-06T07:33:12;6.80;;;5.60;;
9304;SDS011;4690;52.422;13.486;2023-04-06T07:35:38;11.65;;;5.40;;
9304;SDS011;4690;52.422;13.486;2023-04-06T07:38:04;8.35;;;5.60;;
9304;SDS011;4690;52.422;13.486;2023-04-06T07:40:30;8.32;;;4.95;;
9304;SDS011;4690;52.422;13.486;2023-04-06T07:42:57;6.22;;;4.75;;
9304;SDS011;4690;52.422;13.486;2023-04-06T07:45:23;5.05;;;4.47;;
9304;SDS011;4690;52.422;13.486;2023-04-06T07:47:49;6.63;;;5.18;;
9304;SDS011;4690;52.422;13.486;2023-04-06T07:50:15;7.13;;;5.53;;
9304;SDS011;4690;52.422;13.486;2023-04-06T07:52:41;6.72;;;5.20;;
9304;SDS011;4690;52.422;13.486;2023-04-06T07:55:07;5.72;;;4.40;;
9304;SDS011;4690;52.422;13.486;2023-04-06T07:57:33;6.45;;;4.70;;
9304;SDS011;4690;52.422;13.486;2023-04-06T07:59:59;6.05;;;4.28;;
9304;SDS011;4690;52.422;13.486;2023-04-06T08:02:25;7.25;;;4.97;;
9304;SDS011;4690;52.422;13.486;2023-04-06T08:04:51;4.82;;;4.00;;
9304;SDS011;4690;52.422;13.486;2023-04-06T08:07:17;4.50;;;3.92;;
9304;SDS011;4690;52.422;13.486;2023-04-06T08:09:43;8.38;;;4.40;;
9304;SDS011;4690;52.422;13.486;2023-04-06T08:12:08;5.05;;;4.47;;
9304;SDS011;4690;52.422;13.486;2023-04-06T08:14:34;6.13;;;3.88;;
9304;SDS011;4690;52.422;13.486;2023-04-06T08:17:00;4.78;;;3.90;;
9304;SDS011;4690;52.422;13.486;2023-04-06T08:19:26;4.25;;;3.85;;
9304;SDS011;4690;52.422;13.486;2023-04-06T08:21:52;3.78;;;3.03;;
9304;SDS011;4690;52.422;13.486;2023-04-06T08:24:18;4.82;;;3.80;;
9304;SDS011;4690;52.422;13.486;2023-04-06T08:26:44;5.00;;;3.72;;
9304;SDS011;4690;52.422;13.486;2023-04-06T08:29:10;3.63;;;3.33;;
9304;SDS011;4690;52.422;13.486;2023-04-06T08:31:36;4.38;;;3.10;;
9304;SDS011;4690;52.422;13.486;2023-04-06T08:34:03;4.07;;;3.15;;
9304;SDS011;4690;52.422;13.486;2023-04-06T08:36:30;3.80;;;2.97;;
9304;SDS011;4690;52.422;13.486;2023-04-06T08:38:56;3.72;;;3.30;;
9304;SDS011;4690;52.422;13.486;2023-04-06T08:41:22;4.30;;;3.40;;
9304;SDS011;4690;52.422;13.486;2023-04-06T08:43:49;5.75;;;3.58;;
9304;SDS011;4690;52.422;13.486;2023-04-06T08:46:25;5.30;;;3.05;;
9304;SDS011;4690;52.422;13.486;2023-04-06T08:48:58;3.55;;;3.10;;
9304;SDS011;4690;52.422;13.486;2023-04-06T08:51:27;3.33;;;3.00;;
9304;SDS011;4690;52.422;13.486;2023-04-06T08:53:59;3.55;;;3.10;;
9304;SDS011;4690;52.422;13.486;2023-04-06T08:56:26;3.42;;;2.80;;
9304;SDS011;4690;52.422;13.486;2023-04-06T08:58:53;4.80;;;2.70;;
9304;SDS011;4690;52.422;13.486;2023-04-06T09:01:21;3.05;;;2.75;;
9304;SDS011;4690;52.422;13.486;2023-04-06T09:03:50;5.00;;;2.72;;
9304;SDS011;4690;52.422;13.486;2023-04-06T09:06:21;3.38;;;2.72;;
9304;SDS011;4690;52.422;13.486;2023-04-06T09:08:47;3.67;;;3.08;;
9304;SDS011;4690;52.422;13.486;2023-04-06T09:11:14;4.45;;;3.30;;
9304;SDS011;4690;52.422;13.486;2023-04-06T09:13:47;3.92;;;3.10;;
9304;SDS011;4690;52.422;13.486;2023-04-06T09:16:19;3.40;;;2.75;;
9304;SDS011;4690;52.422;13.486;2023-04-06T09:18:46;3.58;;;2.75;;
9304;SDS011;4690;52.422;13.486;2023-04-06T09:21:13;4.65;;;2.60;;
9304;SDS011;4690;52.422;13.486;2023-04-06T09:23:43;4.88;;;2.80;;
9304;SDS011;4690;52.422;13.486;2023-04-06T09:26:11;4.85;;;2.53;;
9304;SDS011;4690;52.422;13.486;2023-04-06T09:28:51;4.82;;;2.58;;
9304;SDS011;4690;52.422;13.486;2023-04-06T09:31:22;3.38;;;2.65;;
9304;SDS011;4690;52.422;13.486;2023-04-06T09:33:50;4.03;;;2.85;;
9304;SDS011;4690;52.422;13.486;2023-04-06T09:36:17;4.20;;;3.28;;
9304;SDS011;4690;52.422;13.486;2023-04-06T09:38:54;2.78;;;2.50;;
9304;SDS011;4690;52.422;13.486;2023-04-06T09:41:26;2.90;;;2.60;;
9304;SDS011;4690;52.422;13.486;2023-04-06T09:46:31;3.03;;;2.72;;
9304;SDS011;4690;52.422;13.486;2023-04-06T09:49:00;2.40;;;2.20;;
9304;SDS011;4690;52.422;13.486;2023-04-06T09:51:32;2.35;;;2.15;;
9304;SDS011;4690;52.422;13.486;2023-04-06T09:54:22;3.65;;;2.47;;
9304;SDS011;4690;52.422;13.486;2023-04-06T10:00:07;3.05;;;2.65;;
9304;SDS011;4690;52.422;13.486;2023-04-06T10:08:09;3.75;;;2.20;;
9304;SDS011;4690;52.422;13.486;2023-04-06T10:10:37;2.35;;;2.15;;
9304;SDS011;4690;52.422;13.486;2023-04-06T10:13:03;2.72;;;2.10;;
9304;SDS011;4690;52.422;13.486;2023-04-06T10:15:30;3.30;;;2.33;;
9304;SDS011;4690;52.422;13.486;2023-04-06T10:18:00;3.05;;;2.53;;
9304;SDS011;4690;52.422;13.486;2023-04-06T10:25:51;2.45;;;2.25;;
9304;SDS011;4690;52.422;13.486;2023-04-06T10:28:25;2.50;;;2.30;;
9304;SDS011;4690;52.422;13.486;2023-04-06T10:30:57;5.55;;;2.85;;
9304;SDS011;4690;52.422;13.486;2023-04-06T10:33:30;2.60;;;2.40;;
9304;SDS011;4690;52.422;13.486;2023-04-06T10:35:56;2.70;;;2.50;;
9304;SDS011;4690;52.422;13.486;2023-04-06T10:38:32;4.53;;;2.53;;
9304;SDS011;4690;52.422;13.486;2023-04-06T10:41:04;2.40;;;2.20;;
9304;SDS011;4690;52.422;13.486;2023-04-06T10:43:35;2.78;;;2.42;;
9304;SDS011;4690;52.422;13.486;2023-04-06T10:46:04;2.83;;;2.53;;
9304;SDS011;4690;52.422;13.486;2023-04-06T10:48:39;2.75;;;2.40;;
9304;SDS011;4690;52.422;13.486;2023-04-06T10:51:08;2.72;;;2.53;;
9304;SDS011;4690;52.422;13.486;2023-04-06T10:53:43;2.55;;;2.35;;
9304;SDS011;4690;52.422;13.486;2023-04-06T10:56:13;3.45;;;2.75;;
9304;SDS011;4690;52.422;13.486;2023-04-06T10:58:47;2.95;;;2.40;;
9304;SDS011;4690;52.422;13.486;2023-04-06T11:01:17;15.20;;;3.13;;
9304;SDS011;4690;52.422;13.486;2023-04-06T11:03:46;5.50;;;2.65;;
9304;SDS011;4690;52.422;13.486;2023-04-06T11:08:54;2.85;;;2.40;;
9304;SDS011;4690;52.422;13.486;2023-04-06T11:11:25;3.10;;;2.40;;
9304;SDS011;4690;52.422;13.486;2023-04-06T11:13:52;2.80;;;2.60;;
9304;SDS011;4690;52.422;13.486;2023-04-06T11:16:24;2.88;;;2.47;;
9304;SDS011;4690;52.422;13.486;2023-04-06T11:18:52;4.90;;;2.92;;
9304;SDS011;4690;52.422;13.486;2023-04-06T11:21:34;3.05;;;2.50;;
9304;SDS011;4690;52.422;13.486;2023-04-06T11:24:08;3.83;;;2.50;;
9304;SDS011;4690;52.422;13.486;2023-04-06T11:27:17;3.03;;;2.70;;
9304;SDS011;4690;52.422;13.486;2023-04-06T11:29:26;3.97;;;2.80;;
9304;SDS011;4690;52.422;13.486;2023-04-06T11:34:28;2.90;;;2.65;;
9304;SDS011;4690;52.422;13.486;2023-04-06T11:36:57;2.53;;;2.33;;
9304;SDS011;4690;52.422;13.486;2023-04-06T11:39:27;4.43;;;2.65;;
9304;SDS011;4690;52.422;13.486;2023-04-06T11:41:59;3.95;;;2.65;;
9304;SDS011;4690;52.422;13.486;2023-04-06T11:44:38;3.30;;;3.00;;
9304;SDS011;4690;52.422;13.486;2023-04-06T11:47:10;3.17;;;2.65;;
9304;SDS011;4690;52.422;13.486;2023-04-06T11:49:38;2.92;;;2.42;;
9304;SDS011;4690;52.422;13.486;2023-04-06T11:54:46;3.47;;;2.65;;
9304;SDS011;4690;52.422;13.486;2023-04-06T11:57:13;2.70;;;2.50;;
9304;SDS011;4690;52.422;13.486;2023-04-06T11:59:40;2.72;;;2.53;;
9304;SDS011;4690;52.422;13.486;2023-04-06T12:02:06;4.07;;;3.17;;
9304;SDS011;4690;52.422;13.486;2023-04-06T12:04:32;2.72;;;2.53;;
9304;SDS011;4690;52.422;13.486;2023-04-06T12:06:58;4.07;;;2.65;;
9304;SDS011;4690;52.422;13.486;2023-04-06T12:09:24;5.05;;;2.53;;
9304;SDS011;4690;52.422;13.486;2023-04-06T12:11:50;3.05;;;2.75;;
9304;SDS011;4690;52.422;13.486;2023-04-06T12:14:16;3.08;;;2.53;;
9304;SDS011;4690;52.422;13.486;2023-04-06T12:16:42;3.20;;;2.90;;
9304;SDS011;4690;52.422;13.486;2023-04-06T12:19:08;4.78;;;3.08;;
9304;SDS011;4690;52.422;13.486;2023-04-06T12:21:35;3.03;;;2.72;;
9304;SDS011;4690;52.422;13.486;2023-04-06T12:24:02;3.80;;;2.72;;
9304;SDS011;4690;52.422;13.486;2023-04-06T12:26:29;3.33;;;3.03;;
9304;SDS011;4690;52.422;13.486;2023-04-06T12:28:56;5.78;;;2.95;;
9304;SDS011;4690;52.422;13.486;2023-04-06T12:31:30;3.05;;;2.75;;
9304;SDS011;4690;52.422;13.486;2023-04-06T12:33:55;4.30;;;3.13;;
9304;SDS011;4690;52.422;13.486;2023-04-06T12:36:21;4.45;;;3.15;;
9304;SDS011;4690;52.422;13.486;2023-04-06T12:38:47;3.22;;;2.70;;
9304;SDS011;4690;52.422;13.486;2023-04-06T12:41:14;4.65;;;3.10;;
9304;SDS011;4690;52.422;13.486;2023-04-06T12:43:40;3.28;;;2.92;;
9304;SDS011;4690;52.422;13.486;2023-04-06T12:46:07;3.90;;;2.78;;
9304;SDS011;4690;52.422;13.486;2023-04-06T12:48:35;5.15;;;3.00;;
9304;SDS011;4690;52.422;13.486;2023-04-06T12:51:02;4.75;;;3.00;;
9304;SDS011;4690;52.422;13.486;2023-04-06T12:53:30;3.00;;;2.70;;
9304;SDS011;4690;52.422;13.486;2023-04-06T12:55:57;3.28;;;2.97;;
9304;SDS011;4690;52.422;13.486;2023-04-06T12:58:24;4.10;;;2.58;;
9304;SDS011;4690;52.422;13.486;2023-04-06T13:00:57;3.15;;;2.85;;
9304;SDS011;4690;52.422;13.486;2023-04-06T13:03:27;3.17;;;2.85;;
9304;SDS011;4690;52.422;13.486;2023-04-06T13:05:53;3.08;;;2.75;;
9304;SDS011;4690;52.422;13.486;2023-04-06T13:08:19;3.03;;;2.72;;
9304;SDS011;4690;52.422;13.486;2023-04-06T13:10:50;3.03;;;2.72;;
9304;SDS011;4690;52.422;13.486;2023-04-06T13:13:20;4.55;;;2.97;;
9304;SDS011;4690;52.422;13.486;2023-04-06T13:15:50;3.28;;;2.85;;
9304;SDS011;4690;52.422;13.486;2023-04-06T13:18:17;3.60;;;3.30;;
9304;SDS011;4690;52.422;13.486;2023-04-06T13:20:43;3.65;;;3.35;;
9304;SDS011;4690;52.422;13.486;2023-04-06T13:23:09;3.67;;;3.22;;
9304;SDS011;4690;52.422;13.486;2023-04-06T13:25:36;3.13;;;2.90;;
9304;SDS011;4690;52.422;13.486;2023-04-06T13:28:02;3.35;;;2.90;;
9304;SDS011;4690;52.422;13.486;2023-04-06T13:30:28;3.70;;;3.40;;
9304;SDS011;4690;52.422;13.486;2023-04-06T13:32:54;3.17;;;2.97;;
9304;SDS011;4690;52.422;13.486;2023-04-06T13:35:20;3.13;;;2.83;;
9304;SDS011;4690;52.422;13.486;2023-04-06T13:37:46;3.40;;;3.10;;
9304;SDS011;4690;52.422;13.486;2023-04-06T13:40:13;5.28;;;2.83;;
9304;SDS011;4690;52.422;13.486;2023-04-06T13:42:39;3.58;;;3.28;;
9304;SDS011;4690;52.422;13.486;2023-04-06T13:45:06;3.83;;;3.42;;
9304;SDS011;4690;52.422;13.486;2023-04-06T13:47:32;3.72;;;3.20;;
9304;SDS011;4690;52.422;13.486;2023-04-06T13:49:58;3.38;;;3.08;;
9304;SDS011;4690;52.422;13.486;2023-04-06T13:52:24;5.75;;;3.80;;
9304;SDS011;4690;52.422;13.486;2023-04-06T13:54:50;3.55;;;3.20;;
9304;SDS011;4690;52.422;13.486;2023-04-06T13:57:16;4.25;;;3.10;;
9304;SDS011;4690;52.422;13.486;2023-04-06T13:59:42;2.95;;;2.75;;
9304;SDS011;4690;52.422;13.486;2023-04-06T14:02:08;3.05;;;2.65;;
9304;SDS011;4690;52.422;13.486;2023-04-06T14:04:35;3.30;;;2.92;;
9304;SDS011;4690;52.422;13.486;2023-04-06T14:07:02;9.23;;;8.32;;
9304;SDS011;4690;52.422;13.486;2023-04-06T14:09:29;7.43;;;6.68;;
9304;SDS011;4690;52.422;13.486;2023-04-06T14:11:55;4.57;;;3.70;;
9304;SDS011;4690;52.422;13.486;2023-04-06T14:14:22;3.47;;;3.17;;
9304;SDS011;4690;52.422;13.486;2023-04-06T14:16:48;4.28;;;3.20;;
9304;SDS011;4690;52.422;13.486;2023-04-06T14:19:15;3.45;;;2.97;;
9304;SDS011;4690;52.422;13.486;2023-04-06T14:21:46;3.15;;;2.85;;
9304;SDS011;4690;52.422;13.486;2023-04-06T14:24:13;6.07;;;5.47;;
9304;SDS011;4690;52.422;13.486;2023-04-06T14:26:41;3.40;;;3.10;;
9304;SDS011;4690;52.422;13.486;2023-04-06T14:29:07;23.13;;;14.38;;
9304;SDS011;4690;52.422;13.486;2023-04-06T14:31:34;37.33;;;26.85;;
9304;SDS011;4690;52.422;13.486;2023-04-06T14:34:01;11.50;;;8.88;;
9304;SDS011;4690;52.422;13.486;2023-04-06T14:36:28;3.85;;;2.83;;
9304;SDS011;4690;52.422;13.486;2023-04-06T14:39:02;5.32;;;3.60;;
9304;SDS011;4690;52.422;13.486;2023-04-06T14:41:32;9.80;;;7.60;;
9304;SDS011;4690;52.422;13.486;2023-04-06T14:44:00;3.97;;;3.30;;
9304;SDS011;4690;52.422;13.486;2023-04-06T14:46:26;2.93;;;2.53;;
9304;SDS011;4690;52.422;13.486;2023-04-06T14:48:56;3.63;;;3.17;;
9304;SDS011;4690;52.422;13.486;2023-04-06T14:51:25;5.07;;;2.37;;
9304;SDS011;4690;52.422;13.486;2023-04-06T14:53:54;2.95;;;2.53;;
9304;SDS011;4690;52.422;13.486;2023-04-06T14:56:23;3.00;;;2.70;;
9304;SDS011;4690;52.422;13.486;2023-04-06T14:58:50;5.70;;;2.70;;
9304;SDS011;4690;52.422;13.486;2023-04-06T15:01:19;2.83;;;2.57;;
9304;SDS011;4690;52.422;13.486;2023-04-06T15:03:45;5.33;;;2.63;;
9304;SDS011;4690;52.422;13.486;2023-04-06T15:06:12;2.83;;;2.57;;
9304;SDS011;4690;52.422;13.486;2023-04-06T15:08:42;3.00;;;2.57;;
9304;SDS011;4690;52.422;13.486;2023-04-06T15:11:09;2.90;;;2.60;;
9304;SDS011;4690;52.422;13.486;2023-04-06T15:13:36;2.90;;;2.60;;
9304;SDS011;4690;52.422;13.486;2023-04-06T15:16:03;3.13;;;2.43;;
9304;SDS011;4690;52.422;13.486;2023-04-06T15:18:30;2.87;;;2.60;;
9304;SDS011;4690;52.422;13.486;2023-04-06T15:20:55;3.33;;;2.97;;